createdAt,value
2019-05-16T00:03:27.979Z,10.30
2019-05-16T00:07:35.497Z,15.07
2019-05-16T00:11:43.853Z,13.50
2019-05-16T00:15:52.120Z,14.70
2019-05-16T00:20:00.693Z,15.17
2019-05-16T00:24:08.664Z,17.43
2019-05-16T00:28:18.143Z,15.40
2019-05-16T00:32:28.170Z,15.13
2019-05-16T00:36:38.164Z,18.07
2019-05-16T00:40:45.862Z,14.33
2019-05-16T00:44:53.661Z,13.27
2019-05-16T00:49:01.925Z,14.77
2019-05-16T00:53:10.305Z,15.20
2019-05-16T00:57:18.915Z,16.10
2019-05-16T01:01:28.263Z,10.67
2019-05-16T01:05:38.748Z,12.17
2019-05-16T01:09:45.838Z,15.73
2019-05-16T01:13:54.311Z,12.47
2019-05-16T01:18:02.070Z,16.40
2019-05-16T01:22:09.911Z,14.63
2019-05-16T01:26:18.696Z,13.97
2019-05-16T01:30:28.667Z,20.80
2019-05-16T01:34:37.818Z,15.40
2019-05-16T01:38:48.099Z,16.20
2019-05-16T01:42:57.775Z,16.00
2019-05-16T01:47:05.357Z,15.27
2019-05-16T01:51:13.803Z,16.70
2019-05-16T01:55:21.484Z,19.37
2019-05-16T01:59:29.658Z,18.43
2019-05-16T02:03:38.737Z,20.93
2019-05-16T02:07:48.016Z,18.77
2019-05-16T02:11:58.761Z,17.57
2019-05-16T02:16:08.239Z,16.83
2019-05-16T02:20:17.972Z,20.53
2019-05-16T02:24:28.347Z,11.47
2019-05-16T02:28:40.107Z,16.60
2019-05-16T02:32:45.714Z,17.27
2019-05-16T02:37:11.995Z,16.10
2019-05-16T02:41:03.651Z,13.37
2019-05-16T02:45:13.502Z,13.17
2019-05-16T02:49:21.751Z,13.90
2019-05-16T02:53:31.004Z,12.63
2019-05-16T02:57:41.447Z,17.10
2019-05-16T03:01:52.113Z,21.30
2019-05-16T03:06:01.460Z,13.67
2019-05-16T03:10:11.204Z,15.80
2019-05-16T03:14:21.260Z,14.70
2019-05-16T03:18:31.246Z,19.67
2019-05-16T03:22:41.226Z,16.77
2019-05-16T03:26:51.441Z,18.17
2019-05-16T03:31:05.073Z,14.20
2019-05-16T03:35:14.959Z,15.87
2019-05-16T03:39:21.241Z,16.33
2019-05-16T03:43:31.010Z,14.83
2019-05-16T03:47:42.239Z,18.53
2019-05-16T03:51:50.575Z,23.73
2019-05-16T03:56:01.572Z,14.50
2019-05-16T04:00:11.374Z,17.10
2019-05-16T04:04:20.649Z,17.07
2019-05-16T04:08:30.685Z,14.57
2019-05-16T04:12:37.297Z,16.60
2019-05-16T04:16:45.502Z,21.40
2019-05-16T04:20:53.647Z,22.80
2019-05-16T04:25:02.254Z,19.20
2019-05-16T04:29:11.932Z,20.67
2019-05-16T04:33:21.906Z,18.87
2019-05-16T04:37:31.371Z,19.00
2019-05-16T04:41:40.916Z,21.77
2019-05-16T04:45:52.129Z,18.37
2019-05-16T04:50:01.681Z,19.97
2019-05-16T04:54:11.478Z,19.17
2019-05-16T04:58:22.556Z,20.37
2019-05-16T05:02:30.769Z,17.37
2019-05-16T05:06:40.385Z,17.43
2019-05-16T05:10:47.162Z,19.73
2019-05-16T05:14:55.226Z,21.37
2019-05-16T05:19:02.846Z,23.27
2019-05-16T05:23:11.059Z,22.83
2019-05-16T05:27:19.764Z,21.37
2019-05-16T05:31:34.414Z,19.20
2019-05-16T05:35:40.702Z,23.90
2019-05-16T05:39:47.536Z,23.53
2019-05-16T05:43:56.231Z,21.33
2019-05-16T05:48:04.488Z,20.27
2019-05-16T05:52:12.864Z,17.80
2019-05-16T05:56:21.053Z,22.83
2019-05-16T06:00:30.345Z,22.13
2019-05-16T06:04:39.592Z,19.70
2019-05-16T06:08:50.009Z,17.90
2019-05-16T06:12:57.061Z,18.60
2019-05-16T06:17:05.392Z,17.63
2019-05-16T06:21:13.797Z,15.00
2019-05-16T06:25:22.885Z,18.73
2019-05-16T06:29:31.365Z,17.17
2019-05-16T06:33:41.127Z,16.20
2019-05-16T06:37:49.943Z,13.57
2019-05-16T06:42:00.413Z,17.47
2019-05-16T06:46:07.966Z,15.57
2019-05-16T06:50:15.798Z,10.87
2019-05-16T06:54:24.091Z,11.03
2019-05-16T06:58:43.696Z,9.57
2019-05-16T07:02:41.222Z,19.40
2019-05-16T07:06:58.599Z,12.17
2019-05-16T07:11:00.033Z,14.70
2019-05-16T07:15:12.400Z,12.50
2019-05-16T07:19:20.768Z,11.83
2019-05-16T07:23:29.906Z,12.80
2019-05-16T07:27:40.114Z,14.90
2019-05-16T07:31:47.886Z,12.90
2019-05-16T07:35:56.230Z,17.37
2019-05-16T07:40:16.285Z,14.53
2019-05-16T07:44:14.219Z,33.63
2019-05-16T07:48:22.428Z,14.30
2019-05-16T07:52:35.858Z,9.93
2019-05-16T07:56:40.851Z,12.47
2019-05-16T08:00:58.298Z,15.13
2019-05-16T08:05:00.877Z,9.50
2019-05-16T08:09:12.470Z,14.27
2019-05-16T08:13:21.284Z,9.60
2019-05-16T08:17:31.373Z,11.03
2019-05-16T08:21:41.167Z,11.30
2019-05-16T08:25:50.769Z,11.43
2019-05-16T08:30:02.106Z,7.90
2019-05-16T08:34:11.674Z,6.77
2019-05-16T08:38:21.118Z,12.23
2019-05-16T08:42:27.683Z,9.77
2019-05-16T08:46:35.900Z,13.20
2019-05-16T08:50:50.315Z,8.80
2019-05-16T08:54:53.569Z,9.67
2019-05-16T08:59:03.460Z,9.87
2019-05-16T09:03:12.299Z,8.10
2019-05-16T09:07:22.734Z,10.23
2019-05-16T09:11:44.921Z,10.10
2019-05-16T09:15:41.721Z,14.17
2019-05-16T09:19:50.296Z,7.12
2019-05-16T09:23:58.217Z,9.75
2019-05-16T09:28:07.436Z,13.20
2019-05-16T09:32:27.023Z,9.55
2019-05-16T09:36:28.100Z,12.55
2019-05-16T09:40:38.700Z,9.20
2019-05-16T09:44:47.561Z,7.17
2019-05-16T09:49:13.065Z,7.37
2019-05-16T09:53:07.247Z,10.10
2019-05-16T09:57:17.446Z,8.70
2019-05-16T10:01:27.627Z,7.65
2019-05-16T10:05:37.215Z,4.55
2019-05-16T10:09:50.024Z,5.10
2019-05-16T10:13:56.164Z,3.70
2019-05-16T10:18:07.355Z,6.85
2019-05-16T10:22:17.052Z,6.55
2019-05-16T10:26:27.715Z,9.00
2019-05-16T10:30:34.875Z,7.55
2019-05-16T10:34:42.900Z,4.58
2019-05-16T10:38:51.032Z,8.75
2019-05-16T10:42:59.244Z,4.47
2019-05-16T10:47:07.709Z,8.18
2019-05-16T10:51:17.102Z,4.90
2019-05-16T10:55:27.634Z,5.55
2019-05-16T10:59:57.730Z,4.40
2019-05-16T11:03:44.322Z,3.22
2019-05-16T11:07:53.476Z,4.95
2019-05-16T11:12:01.270Z,4.95
2019-05-16T11:16:09.516Z,8.40
2019-05-16T11:20:20.579Z,12.25
2019-05-16T11:24:29.727Z,9.45
2019-05-16T11:28:37.259Z,6.42
2019-05-16T11:32:46.981Z,8.75
2019-05-16T11:36:57.010Z,6.67
2019-05-16T11:41:07.220Z,9.80
2019-05-16T11:45:16.537Z,6.67
2019-05-16T11:49:24.585Z,8.18
2019-05-16T11:53:32.259Z,8.55
2019-05-16T11:57:39.971Z,4.95
2019-05-16T12:01:48.005Z,5.65
2019-05-16T12:05:58.015Z,6.05
2019-05-16T12:10:07.619Z,6.08
2019-05-16T12:14:16.598Z,5.70
2019-05-16T12:18:26.582Z,6.75
2019-05-16T12:22:37.487Z,7.25
2019-05-16T12:26:44.240Z,4.42
2019-05-16T12:30:52.318Z,4.22
2019-05-16T12:35:00.233Z,5.53
2019-05-16T12:39:09.157Z,5.78
2019-05-16T12:43:18.204Z,10.63
2019-05-16T12:47:26.348Z,6.25
2019-05-16T12:51:36.927Z,5.08
2019-05-16T12:55:44.335Z,6.00
2019-05-16T12:59:52.751Z,9.38
2019-05-16T13:04:00.769Z,6.70
2019-05-16T13:08:08.421Z,6.28
2019-05-16T13:12:17.540Z,5.97
2019-05-16T13:16:28.080Z,4.03
2019-05-16T13:20:39.228Z,4.27
2019-05-16T13:24:47.925Z,6.57
2019-05-16T13:28:57.839Z,8.30
2019-05-16T13:33:07.001Z,6.10
2019-05-16T13:37:17.612Z,7.23
2019-05-16T13:41:26.838Z,6.83
2019-05-16T13:45:33.883Z,7.00
2019-05-16T13:49:41.818Z,6.13
2019-05-16T13:53:49.530Z,9.03
2019-05-16T13:57:57.654Z,5.40
2019-05-16T14:02:07.792Z,5.57
2019-05-16T14:06:18.051Z,12.07
2019-05-16T14:10:29.785Z,6.30
2019-05-16T14:14:41.908Z,6.53
2019-05-16T14:18:47.025Z,5.03
2019-05-16T14:22:57.166Z,7.90
2019-05-16T14:27:06.464Z,10.30
2019-05-16T14:31:14.310Z,5.50
2019-05-16T14:35:21.999Z,6.70
2019-05-16T14:39:29.881Z,6.87
2019-05-16T14:43:37.885Z,8.97
2019-05-16T14:47:47.586Z,9.37
2019-05-16T14:51:57.870Z,6.93
2019-05-16T14:56:07.029Z,7.20
2019-05-16T15:00:18.300Z,9.30
2019-05-16T15:04:29.824Z,8.50
2019-05-16T15:08:34.905Z,8.53
2019-05-16T15:12:42.890Z,8.60
2019-05-16T15:16:51.994Z,8.27
2019-05-16T15:20:59.662Z,8.07
2019-05-16T15:25:08.520Z,9.43
2019-05-16T15:29:17.592Z,8.60
2019-05-16T15:33:27.326Z,11.63
2019-05-16T15:37:37.274Z,8.43
2019-05-16T15:41:45.284Z,8.70
2019-05-16T15:45:53.504Z,6.73
2019-05-16T15:50:01.488Z,7.17
2019-05-16T15:54:09.376Z,13.30
2019-05-16T15:58:18.369Z,12.57
2019-05-16T16:02:27.181Z,9.07
2019-05-16T16:06:37.783Z,12.20
2019-05-16T16:10:47.786Z,14.87
2019-05-16T16:14:57.354Z,10.63
2019-05-16T16:19:06.554Z,13.13
2019-05-16T16:23:17.527Z,14.40
2019-05-16T16:27:24.057Z,12.03
2019-05-16T16:31:32.088Z,8.03
2019-05-16T16:35:39.572Z,13.07
2019-05-16T16:39:47.580Z,14.83
2019-05-16T16:43:57.093Z,13.37
2019-05-16T16:48:04.672Z,15.27
2019-05-16T16:52:12.673Z,43.47
2019-05-16T16:56:20.665Z,30.33
2019-05-16T17:00:28.627Z,23.80
2019-05-16T17:04:38.870Z,12.23
2019-05-16T17:08:47.455Z,14.33
2019-05-16T17:12:57.585Z,20.13
2019-05-16T17:17:07.089Z,12.57
2019-05-16T17:21:17.087Z,11.90
2019-05-16T17:25:26.912Z,21.63
2019-05-16T17:29:36.876Z,11.23
2019-05-16T17:33:45.207Z,12.70
2019-05-16T17:37:52.803Z,7.70
2019-05-16T17:42:01.624Z,9.07
2019-05-16T17:46:09.847Z,9.03
2019-05-16T17:50:18.674Z,11.13
2019-05-16T17:54:26.796Z,8.00
2019-05-16T17:58:35.223Z,12.57
2019-05-16T18:02:43.473Z,10.37
2019-05-16T18:06:51.501Z,12.27
2019-05-16T18:10:59.551Z,10.17
2019-05-16T18:15:08.503Z,7.73
2019-05-16T18:19:17.371Z,10.90
2019-05-16T18:23:27.484Z,7.97
2019-05-16T18:27:37.419Z,8.30
2019-05-16T18:31:47.124Z,8.27
2019-05-16T18:35:57.808Z,7.73
2019-05-16T18:40:07.266Z,12.07
2019-05-16T18:44:16.695Z,9.03
2019-05-16T18:48:27.015Z,7.77
2019-05-16T18:52:37.252Z,7.30
2019-05-16T18:56:43.967Z,7.17
2019-05-16T19:00:52.745Z,7.67
2019-05-16T19:05:00.891Z,8.70
2019-05-16T19:09:08.972Z,9.93
2019-05-16T19:13:17.219Z,7.40
2019-05-16T19:17:27.498Z,13.10
2019-05-16T19:21:36.839Z,9.83
2019-05-16T19:25:47.385Z,8.67
2019-05-16T19:29:56.823Z,9.10
2019-05-16T19:34:06.998Z,10.83
2019-05-16T19:38:16.916Z,12.57
2019-05-16T19:42:26.664Z,9.53
2019-05-16T19:46:35.461Z,13.63
2019-05-16T19:50:46.237Z,13.40
2019-05-16T19:54:53.627Z,10.50
2019-05-16T19:59:02.170Z,7.73
2019-05-16T20:03:12.931Z,10.57
2019-05-16T20:07:20.674Z,11.77
2019-05-16T20:11:28.656Z,10.00
2019-05-16T20:15:37.229Z,8.63
2019-05-16T20:19:46.971Z,8.10
2019-05-16T20:23:56.769Z,11.07
2019-05-16T20:28:08.578Z,8.10
2019-05-16T20:32:16.706Z,7.87
2019-05-16T20:36:26.316Z,8.43
2019-05-16T20:40:33.166Z,9.53
2019-05-16T20:44:41.588Z,8.10
2019-05-16T20:48:49.501Z,7.67
2019-05-16T20:52:59.109Z,7.80
2019-05-16T20:57:07.263Z,11.13
2019-05-16T21:01:17.297Z,8.33
2019-05-16T21:05:26.840Z,8.73
2019-05-16T21:09:36.894Z,8.07
2019-05-16T21:13:46.911Z,10.67
2019-05-16T21:17:56.747Z,7.47
2019-05-16T21:22:07.142Z,7.20
2019-05-16T21:26:14.877Z,12.03
2019-05-16T21:30:23.762Z,8.27
2019-05-16T21:34:31.827Z,10.27
2019-05-16T21:38:40.302Z,8.83
2019-05-16T21:42:48.144Z,10.10
2019-05-16T21:46:56.498Z,11.10
2019-05-16T21:51:07.842Z,8.33
2019-05-16T21:55:17.505Z,7.87
2019-05-16T21:59:28.497Z,7.83
2019-05-16T22:03:36.727Z,9.23
2019-05-16T22:07:47.169Z,8.83
2019-05-16T22:11:57.377Z,9.60
2019-05-16T22:16:08.070Z,8.40
2019-05-16T22:20:16.817Z,9.40
2019-05-16T22:24:26.501Z,10.70
2019-05-16T22:28:34.713Z,10.20
2019-05-16T22:32:47.029Z,9.00
2019-05-16T22:36:57.301Z,8.77
2019-05-16T22:41:06.985Z,11.63
2019-05-16T22:45:17.614Z,11.50
2019-05-16T22:49:27.513Z,9.97
2019-05-16T22:53:36.875Z,13.40
2019-05-16T22:57:47.268Z,11.37
2019-05-16T23:01:56.966Z,11.30
2019-05-16T23:06:07.573Z,13.97
2019-05-16T23:10:16.655Z,12.73
2019-05-16T23:14:26.392Z,14.77
2019-05-16T23:18:34.571Z,12.10
2019-05-16T23:22:42.073Z,10.73
2019-05-16T23:26:49.789Z,9.80
2019-05-16T23:30:57.982Z,10.83
2019-05-16T23:35:06.869Z,10.80
2019-05-16T23:39:14.666Z,11.83
2019-05-16T23:43:22.658Z,10.53
2019-05-16T23:47:30.238Z,9.77
2019-05-16T23:51:38.616Z,10.03
2019-05-16T23:55:47.218Z,10.27
2019-05-16T23:59:56.766Z,11.93
